Time;durP1;ratioP1;P1;durP2;ratioP2;P2;SDS_P1;SDS_P2;PMS_P1;PMS_P2;Temp;Humidity;BMP_temperature;BMP_pressure;BME280_temperature;BME280_humidity;BME280_pressure;Samples;Min_cycle;Max_cycle;Signal;HPM_P1;HPM_P2
2023/12/06 00:02:19;;;;;;;61.60;24.40;;;;;;;;;;5065948;28;19921;-77
2023/12/06 00:04:45;;;;;;;66.57;27.10;;;;;;;;;;5052853;28;20080;-75
2023/12/06 00:07:11;;;;;;;52.72;23.60;;;;;;;;;;5037651;28;20485;-75
2023/12/06 00:09:37;;;;;;;;;;;;;;;;;;5018278;28;20075;-75
2023/12/06 00:12:03;;;;;;;49.63;22.55;;;;;;;;;;5043214;28;19920;-75
2023/12/06 00:14:29;;;;;;;;;;;;;;;;;;5063597;28;20044;-76
2023/12/06 00:16:56;;;;;;;52.17;23.77;;;;;;;;;;5033433;28;19920;-78
2023/12/06 00:19:23;;;;;;;51.63;23.77;;;;;;;;;;5054705;28;20412;-75
2023/12/06 00:21:49;;;;;;;51.80;24.65;;;;;;;;;;5055627;28;20037;-75
2023/12/06 00:24:15;;;;;;;;;;;;;;;;;;5054895;28;20044;-75
2023/12/06 00:26:43;;;;;;;52.88;23.80;;;;;;;;;;5037340;28;19921;-75
2023/12/06 00:29:09;;;;;;;61.60;24.42;;;;;;;;;;5052791;28;20044;-75
2023/12/06 00:31:35;;;;;;;55.85;25.98;;;;;;;;;;5043226;28;20040;-75
2023/12/06 00:34:01;;;;;;;;;;;;;;;;;;5036052;28;20049;-76
2023/12/06 00:36:27;;;;;;;53.97;25.33;;;;;;;;;;5043696;28;19926;-75
2023/12/06 00:38:53;;;;;;;;;;;;;;;;;;5031159;28;20044;-75
2023/12/06 00:41:20;;;;;;;52.28;23.45;;;;;;;;;;5043061;28;19946;-75
2023/12/06 00:43:46;;;;;;;52.85;22.00;;;;;;;;;;5033003;28;20055;-75
2023/12/06 00:46:12;;;;;;;;;;;;;;;;;;5048679;28;20379;-76
2023/12/06 00:48:38;;;;;;;48.95;22.88;;;;;;;;;;5042238;28;19943;-75
2023/12/06 00:51:04;;;;;;;48.15;23.08;;;;;;;;;;5048053;28;20045;-75
2023/12/06 00:53:30;;;;;;;;;;;;;;;;;;5034423;28;20055;-75
2023/12/06 00:55:56;;;;;;;47.38;23.20;;;;;;;;;;5031792;28;19970;-76
2023/12/06 00:58:22;;;;;;;51.15;23.20;;;;;;;;;;5045576;28;20045;-75
2023/12/06 01:00:49;;;;;;;53.80;23.85;;;;;;;;;;5033417;28;20049;-75
2023/12/06 01:03:15;;;;;;;51.20;24.48;;;;;;;;;;5051897;28;20045;-75
2023/12/06 01:05:41;;;;;;;55.08;25.33;;;;;;;;;;5050689;28;20115;-75
2023/12/06 01:08:07;;;;;;;;;;;;;;;;;;5058130;28;20047;-75
2023/12/06 01:10:34;;;;;;;51.92;24.05;;;;;;;;;;5042189;28;20297;-76
2023/12/06 01:13:00;;;;;;;49.70;24.10;;;;;;;;;;5049886;28;20045;-78
2023/12/06 01:15:26;;;;;;;;;;;;;;;;;;5027355;28;20076;-76
2023/12/06 01:17:52;;;;;;;53.53;23.17;;;;;;;;;;5051860;28;20033;-75
2023/12/06 01:20:18;;;;;;;;;;;;;;;;;;5054482;28;20175;-75
2023/12/06 01:22:44;;;;;;;69.43;26.48;;;;;;;;;;5040912;28;20310;-75
2023/12/06 01:25:10;;;;;;;;;;;;;;;;;;5051344;28;20048;-76
2023/12/06 01:27:36;;;;;;;63.15;25.65;;;;;;;;;;5052193;28;20019;-75
2023/12/06 01:30:04;;;;;;;50.83;25.17;;;;;;;;;;5037367;28;20051;-79
2023/12/06 01:32:30;;;;;;;48.75;23.83;;;;;;;;;;5053556;28;20073;-76
2023/12/06 01:34:56;;;;;;;51.97;24.42;;;;;;;;;;5053394;28;20049;-76
2023/12/06 01:37:22;;;;;;;54.63;25.42;;;;;;;;;;5020024;28;20638;-75
2023/12/06 01:39:48;;;;;;;54.20;25.80;;;;;;;;;;5037588;28;20055;-76
2023/12/06 01:42:14;;;;;;;58.30;26.40;;;;;;;;;;5034299;28;20053;-75
2023/12/06 01:44:40;;;;;;;59.10;26.25;;;;;;;;;;5067646;28;20157;-75
2023/12/06 01:47:06;;;;;;;;;;;;;;;;;;5020569;28;20580;-76
2023/12/06 01:49:33;;;;;;;55.30;26.20;;;;;;;;;;5037274;28;19920;-75
2023/12/06 01:51:59;;;;;;;60.75;26.33;;;;;;;;;;5035750;28;20046;-76
2023/12/06 01:54:26;;;;;;;;;;;;;;;;;;5046157;28;20072;-75
2023/12/06 01:56:53;;;;;;;60.78;26.02;;;;;;;;;;5066114;28;19924;-75
2023/12/06 01:59:20;;;;;;;61.90;26.08;;;;;;;;;;5041614;28;20637;-75
2023/12/06 02:01:46;;;;;;;60.58;27.48;;;;;;;;;;5043077;28;20045;-76
2023/12/06 02:04:12;;;;;;;63.05;27.83;;;;;;;;;;5034869;28;20040;-75
2023/12/06 02:06:38;;;;;;;65.03;27.15;;;;;;;;;;5036640;28;20121;-75
2023/12/06 02:09:04;;;;;;;;;;;;;;;;;;5044094;28;20036;-76
2023/12/06 02:11:30;;;;;;;63.97;27.65;;;;;;;;;;5049465;28;19928;-75
2023/12/06 02:13:56;;;;;;;;;;;;;;;;;;5060394;28;20122;-78
2023/12/06 02:16:23;;;;;;;60.03;27.85;;;;;;;;;;5048949;28;19975;-75
2023/12/06 02:18:49;;;;;;;72.57;28.30;;;;;;;;;;5035772;28;20094;-75
2023/12/06 02:21:15;;;;;;;65.07;28.95;;;;;;;;;;5052811;28;20103;-75
2023/12/06 02:23:41;;;;;;;;;;;;;;;;;;5053746;28;20080;-75
2023/12/06 02:26:07;;;;;;;69.30;29.48;;;;;;;;;;5051405;28;20049;-79
2023/12/06 02:28:33;;;;;;;;;;;;;;;;;;5032031;28;20041;-75
2023/12/06 02:31:00;;;;;;;70.15;28.92;;;;;;;;;;5034215;28;19927;-75
2023/12/06 02:33:26;;;;;;;71.10;29.17;;;;;;;;;;5036276;28;20090;-75
2023/12/06 02:35:54;;;;;;;70.50;30.10;;;;;;;;;;5009539;28;20075;-75
2023/12/06 02:38:20;;;;;;;69.20;29.65;;;;;;;;;;5035973;28;20397;-76
2023/12/06 02:40:48;;;;;;;70.90;30.23;;;;;;;;;;5052964;28;20494;-75
2023/12/06 02:43:15;;;;;;;68.63;28.63;;;;;;;;;;5035502;28;20048;-75
2023/12/06 02:45:41;;;;;;;73.00;29.20;;;;;;;;;;5052646;28;20049;-75
2023/12/06 02:48:08;;;;;;;69.78;28.58;;;;;;;;;;5053128;28;20045;-77
2023/12/06 02:50:34;;;;;;;73.00;30.10;;;;;;;;;;5036546;28;20052;-75
2023/12/06 02:53:00;;;;;;;69.93;29.30;;;;;;;;;;5046510;28;20128;-75
2023/12/06 02:55:26;;;;;;;;;;;;;;;;;;5036788;28;20068;-75
2023/12/06 02:57:52;;;;;;;71.13;31.40;;;;;;;;;;5047329;28;19978;-75
2023/12/06 03:00:18;;;;;;;70.95;28.73;;;;;;;;;;5046471;28;20097;-75
2023/12/06 03:02:44;;;;;;;73.18;30.92;;;;;;;;;;5028698;28;20143;-77
2023/12/06 03:05:10;;;;;;;;;;;;;;;;;;5031315;28;20045;-75
2023/12/06 03:07:36;;;;;;;72.95;29.38;;;;;;;;;;5058154;28;20289;-76
2023/12/06 03:10:03;;;;;;;;;;;;;;;;;;5052607;28;20041;-76
2023/12/06 03:12:29;;;;;;;68.15;27.23;;;;;;;;;;5047916;28;20336;-75
2023/12/06 03:14:55;;;;;;;;;;;;;;;;;;5030050;28;20372;-75
2023/12/06 03:17:21;;;;;;;71.97;28.95;;;;;;;;;;5051724;28;19956;-77
2023/12/06 03:19:47;;;;;;;;;;;;;;;;;;5027939;28;20060;-75
2023/12/06 03:22:13;;;;;;;76.95;30.13;;;;;;;;;;5036117;28;19920;-75
2023/12/06 03:24:39;;;;;;;;;;;;;;;;;;5053022;28;20044;-75
2023/12/06 03:27:05;;;;;;;76.07;29.75;;;;;;;;;;5035554;28;20355;-75
2023/12/06 03:29:31;;;;;;;;;;;;;;;;;;5036876;28;20139;-75
2023/12/06 03:31:57;;;;;;;74.05;29.52;;;;;;;;;;5036244;28;19991;-76
2023/12/06 03:34:23;;;;;;;;;;;;;;;;;;5038751;28;20048;-75
2023/12/06 03:36:49;;;;;;;70.35;28.20;;;;;;;;;;5049091;28;19920;-77
2023/12/06 03:39:16;;;;;;;76.15;28.65;;;;;;;;;;5056266;28;20044;-76
2023/12/06 03:41:42;;;;;;;79.15;29.55;;;;;;;;;;5039723;28;20562;-75
2023/12/06 03:44:08;;;;;;;77.70;29.60;;;;;;;;;;5073298;28;20044;-75
2023/12/06 03:46:35;;;;;;;77.20;29.27;;;;;;;;;;5054820;28;20032;-75
2023/12/06 03:49:01;;;;;;;;;;;;;;;;;;5037253;28;20041;-76
2023/12/06 03:51:28;;;;;;;69.80;28.15;;;;;;;;;;5050310;28;19942;-76
2023/12/06 03:53:55;;;;;;;71.35;28.75;;;;;;;;;;5037818;28;20045;-75
2023/12/06 03:56:21;;;;;;;75.00;29.60;;;;;;;;;;5043472;28;20096;-76
2023/12/06 03:58:47;;;;;;;;;;;;;;;;;;5049084;28;20067;-76
2023/12/06 04:01:13;;;;;;;70.57;27.60;;;;;;;;;;5043725;28;19920;-75
2023/12/06 04:03:43;;;;;;;72.78;28.70;;;;;;;;;;5043196;28;20044;-76
2023/12/06 04:06:10;;;;;;;72.88;27.45;;;;;;;;;;5044142;28;20072;-75
2023/12/06 04:08:37;;;;;;;69.63;27.45;;;;;;;;;;5048795;28;20040;-75
2023/12/06 04:11:04;;;;;;;67.72;28.55;;;;;;;;;;5050510;28;20048;-76
2023/12/06 04:13:30;;;;;;;68.85;28.20;;;;;;;;;;5046685;28;20501;-75
2023/12/06 04:15:56;;;;;;;66.45;27.25;;;;;;;;;;5037957;28;20386;-75
2023/12/06 04:18:22;;;;;;;64.22;27.00;;;;;;;;;;5032428;28;20059;-79
2023/12/06 04:20:48;;;;;;;;;;;;;;;;;;5046034;28;20542;-75
2023/12/06 04:23:14;;;;;;;65.40;26.98;;;;;;;;;;5046133;28;19921;-75
2023/12/06 04:25:40;;;;;;;62.78;26.38;;;;;;;;;;5029895;28;20070;-75
2023/12/06 04:28:07;;;;;;;64.50;26.85;;;;;;;;;;5063408;28;20037;-75
2023/12/06 04:30:33;;;;;;;57.22;26.17;;;;;;;;;;5046452;28;20072;-75
2023/12/06 04:33:00;;;;;;;59.13;25.90;;;;;;;;;;5046199;28;20517;-75
2023/12/06 04:35:26;;;;;;;63.10;26.23;;;;;;;;;;5051492;28;20040;-77
2023/12/06 04:37:52;;;;;;;57.53;24.38;;;;;;;;;;5055278;28;20080;-75
2023/12/06 04:40:18;;;;;;;;;;;;;;;;;;5043976;28;20037;-75
2023/12/06 04:42:44;;;;;;;64.30;25.42;;;;;;;;;;5042993;28;20420;-75
2023/12/06 04:45:10;;;;;;;53.58;24.23;;;;;;;;;;5044221;28;20059;-75
2023/12/06 04:47:36;;;;;;;;;;;;;;;;;;5054105;28;20049;-75
2023/12/06 04:50:03;;;;;;;52.47;23.08;;;;;;;;;;5044601;28;19970;-75
2023/12/06 04:52:29;;;;;;;57.28;24.58;;;;;;;;;;5041307;28;20124;-75
2023/12/06 04:54:55;;;;;;;;;;;;;;;;;;5045998;28;20097;-75
2023/12/06 04:57:21;;;;;;;52.92;23.38;;;;;;;;;;5041585;28;19929;-75
2023/12/06 04:59:47;;;;;;;;;;;;;;;;;;5066223;28;20040;-75
2023/12/06 05:02:13;;;;;;;58.50;24.92;;;;;;;;;;5042390;28;20340;-76
2023/12/06 05:04:39;;;;;;;;;;;;;;;;;;5027509;28;20056;-75
2023/12/06 05:07:05;;;;;;;57.22;24.42;;;;;;;;;;5045639;28;19928;-75
2023/12/06 05:09:31;;;;;;;;;;;;;;;;;;5035851;28;20079;-75
2023/12/06 05:11:57;;;;;;;58.85;25.00;;;;;;;;;;5029282;28;19963;-77
2023/12/06 05:14:23;;;;;;;;;;;;;;;;;;5026701;28;20547;-75
2023/12/06 05:16:49;;;;;;;64.32;25.88;;;;;;;;;;5021914;28;19921;-75
2023/12/06 05:19:15;;;;;;;;;;;;;;;;;;5049740;28;20108;-75
2023/12/06 05:21:41;;;;;;;59.85;26.17;;;;;;;;;;5035839;28;20015;-75
2023/12/06 05:24:07;;;;;;;61.45;25.60;;;;;;;;;;5040775;28;20485;-75
2023/12/06 05:26:33;;;;;;;61.67;25.75;;;;;;;;;;5054130;28;20044;-75
2023/12/06 05:28:59;;;;;;;;;;;;;;;;;;5049845;28;20497;-75
2023/12/06 05:31:25;;;;;;;61.33;25.58;;;;;;;;;;5053952;28;19921;-75
2023/12/06 05:33:51;;;;;;;63.67;26.98;;;;;;;;;;5036969;28;20062;-75
2023/12/06 05:36:17;;;;;;;;;;;;;;;;;;5038068;28;20041;-76
2023/12/06 05:38:43;;;;;;;60.92;26.10;;;;;;;;;;5053438;28;20265;-75
2023/12/06 05:41:09;;;;;;;;;;;;;;;;;;5038139;28;20131;-75
2023/12/06 05:43:35;;;;;;;60.30;24.70;;;;;;;;;;5045320;28;20019;-75
2023/12/06 05:46:02;;;;;;;;;;;;;;;;;;5028391;28;20444;-75
2023/12/06 05:48:28;;;;;;;55.80;25.43;;;;;;;;;;5053872;28;19924;-75
2023/12/06 05:50:54;;;;;;;;;;;;;;;;;;5071790;28;20051;-75
2023/12/06 05:53:21;;;;;;;58.25;25.42;;;;;;;;;;5049271;28;19921;-76
2023/12/06 05:55:47;;;;;;;63.00;26.08;;;;;;;;;;5053429;28;20570;-77
2023/12/06 05:58:13;;;;;;;;;;;;;;;;;;5020353;28;20068;-77
2023/12/06 06:00:40;;;;;;;60.00;25.85;;;;;;;;;;5052501;28;19970;-77
2023/12/06 06:03:06;;;;;;;56.78;24.77;;;;;;;;;;5054110;28;20051;-76
2023/12/06 06:05:33;;;;;;;;;;;;;;;;;;5069367;28;20485;-80
2023/12/06 06:07:59;;;;;;;59.20;24.13;;;;;;;;;;5053582;28;19943;-77
2023/12/06 06:10:26;;;;;;;56.08;25.52;;;;;;;;;;5034904;28;20085;-78
2023/12/06 06:12:52;;;;;;;52.88;23.45;;;;;;;;;;5063819;28;20148;-76
2023/12/06 06:15:18;;;;;;;;;;;;;;;;;;5036682;28;20048;-76
2023/12/06 06:17:44;;;;;;;77.70;25.85;;;;;;;;;;5028722;28;19927;-76
2023/12/06 06:20:10;;;;;;;;;;;;;;;;;;5043492;28;20044;-74
2023/12/06 06:22:36;;;;;;;58.45;23.67;;;;;;;;;;5037191;28;19959;-74
2023/12/06 06:25:02;;;;;;;50.53;22.85;;;;;;;;;;5061611;28;20056;-74
2023/12/06 06:27:28;;;;;;;;;;;;;;;;;;5026104;28;20052;-74
2023/12/06 06:29:54;;;;;;;51.40;23.30;;;;;;;;;;5044339;28;19979;-74
2023/12/06 06:32:20;;;;;;;51.92;22.20;;;;;;;;;;5062882;28;20052;-74
2023/12/06 06:34:46;;;;;;;44.65;22.73;;;;;;;;;;5065612;28;20119;-74
2023/12/06 06:37:13;;;;;;;56.00;23.67;;;;;;;;;;5046266;28;20042;-75
2023/12/06 06:39:39;;;;;;;50.75;21.75;;;;;;;;;;5028117;28;20072;-74
2023/12/06 06:42:06;;;;;;;;;;;;;;;;;;5045701;28;20129;-74
2023/12/06 06:44:32;;;;;;;46.05;22.17;;;;;;;;;;5048657;28;20375;-74
2023/12/06 06:46:58;;;;;;;;;;;;;;;;;;5027024;28;20049;-74
2023/12/06 06:49:24;;;;;;;42.58;19.92;;;;;;;;;;5044327;28;20412;-75
2023/12/06 06:51:50;;;;;;;46.45;20.92;;;;;;;;;;5034598;28;20044;-75
2023/12/06 06:54:16;;;;;;;;;;;;;;;;;;5037470;28;20127;-74
2023/12/06 06:56:42;;;;;;;40.92;20.42;;;;;;;;;;5049715;28;19920;-74
2023/12/06 06:59:09;;;;;;;;;;;;;;;;;;5057286;28;20045;-75
2023/12/06 07:01:35;;;;;;;46.55;20.63;;;;;;;;;;5047757;28;19921;-74
2023/12/06 07:04:01;;;;;;;;;;;;;;;;;;5047583;28;20498;-74
2023/12/06 07:06:27;;;;;;;46.75;21.10;;;;;;;;;;5045981;28;19928;-74
2023/12/06 07:08:54;;;;;;;44.20;21.58;;;;;;;;;;5050155;28;20059;-74
2023/12/06 07:11:20;;;;;;;43.67;20.77;;;;;;;;;;5063983;28;20051;-74
2023/12/06 07:13:46;;;;;;;;;;;;;;;;;;5033519;28;20076;-73
2023/12/06 07:16:12;;;;;;;44.90;20.35;;;;;;;;;;5027260;28;19963;-75
2023/12/06 07:18:38;;;;;;;42.83;20.77;;;;;;;;;;5037554;28;20044;-75
2023/12/06 07:21:05;;;;;;;44.05;21.05;;;;;;;;;;5029834;28;20138;-76
2023/12/06 07:23:31;;;;;;;46.10;20.73;;;;;;;;;;5050932;28;20045;-73
2023/12/06 07:25:58;;;;;;;;;;;;;;;;;;5047903;28;20040;-74
2023/12/06 07:28:24;;;;;;;42.15;20.70;;;;;;;;;;5046943;28;20389;-74
2023/12/06 07:30:51;;;;;;;;;;;;;;;;;;5041123;28;20064;-74
2023/12/06 07:33:17;;;;;;;42.03;20.75;;;;;;;;;;5028022;28;19963;-74
2023/12/06 07:35:43;;;;;;;44.50;20.92;;;;;;;;;;5049176;28;20037;-78
2023/12/06 07:38:11;;;;;;;;;;;;;;;;;;5033505;28;20413;-74
2023/12/06 07:40:37;;;;;;;42.83;20.05;;;;;;;;;;5046064;28;19920;-74
2023/12/06 07:43:03;;;;;;;45.90;21.40;;;;;;;;;;5046186;28;20639;-74
2023/12/06 07:45:29;;;;;;;43.15;21.40;;;;;;;;;;5064685;28;20048;-74
2023/12/06 07:47:55;;;;;;;;;;;;;;;;;;5061761;28;20052;-74
2023/12/06 07:50:21;;;;;;;45.10;21.30;;;;;;;;;;5045990;28;19920;-74
2023/12/06 07:52:49;;;;;;;50.00;21.88;;;;;;;;;;5043993;28;20045;-74
2023/12/06 07:55:16;;;;;;;42.97;19.95;;;;;;;;;;5049342;28;20044;-74
2023/12/06 07:57:43;;;;;;;43.38;20.88;;;;;;;;;;5035106;28;20048;-75
2023/12/06 08:00:14;;;;;;;45.05;21.10;;;;;;;;;;5047053;28;20504;-73
2023/12/06 08:02:41;;;;;;;39.97;20.48;;;;;;;;;;5047032;28;20048;-73
2023/12/06 08:05:09;;;;;;;44.80;20.90;;;;;;;;;;5044751;28;20141;-74
2023/12/06 08:07:36;;;;;;;46.53;21.52;;;;;;;;;;5043928;28;20055;-73
2023/12/06 08:10:12;;;;;;;49.53;21.70;;;;;;;;;;5049447;28;20052;-74
2023/12/06 08:12:38;;;;;;;40.30;20.58;;;;;;;;;;5046214;28;20521;-73
2023/12/06 08:15:08;;;;;;;42.47;20.30;;;;;;;;;;5062719;28;20128;-73
2023/12/06 08:17:34;;;;;;;43.70;20.80;;;;;;;;;;5059355;28;20057;-76
2023/12/06 08:20:01;;;;;;;42.70;21.08;;;;;;;;;;5050077;28;20057;-74
2023/12/06 08:22:27;;;;;;;45.88;21.77;;;;;;;;;;5049555;28;20501;-74
2023/12/06 08:24:57;;;;;;;42.33;20.52;;;;;;;;;;5050486;28;20045;-73
2023/12/06 08:27:27;;;;;;;42.47;20.98;;;;;;;;;;5040439;28;20037;-74
2023/12/06 08:29:55;;;;;;;42.78;20.95;;;;;;;;;;5014200;28;20049;-74
2023/12/06 08:32:21;;;;;;;43.78;20.98;;;;;;;;;;5034546;28;20053;-74
2023/12/06 08:34:47;;;;;;;41.60;21.08;;;;;;;;;;5041162;28;20049;-74
2023/12/06 08:37:13;;;;;;;;;;;;;;;;;;5045121;28;20042;-76
2023/12/06 08:39:39;;;;;;;41.78;20.17;;;;;;;;;;5035292;28;19936;-74
2023/12/06 08:42:06;;;;;;;;;;;;;;;;;;5031214;28;20049;-73
2023/12/06 08:44:32;;;;;;;;;;;;;;;;;;5041169;28;20011;-74
2023/12/06 08:46:58;;;;;;;42.03;21.08;;;;;;;;;;5068127;28;20028;-74
2023/12/06 08:49:24;;;;;;;;;;;;;;;;;;5063318;28;20123;-73
2023/12/06 08:51:51;;;;;;;39.50;20.33;;;;;;;;;;5057673;28;20390;-79
2023/12/06 08:54:16;;;;;;;;;;;;;;;;;;5043103;28;20501;-74
2023/12/06 08:56:43;;;;;;;41.95;19.83;;;;;;;;;;5041407;28;19921;-75
2023/12/06 08:59:14;;;;;;;46.17;20.42;;;;;;;;;;5020261;28;20084;-75
2023/12/06 09:01:40;;;;;;;37.95;20.15;;;;;;;;;;5043754;28;20055;-73
2023/12/06 09:04:12;;;;;;;42.55;20.75;;;;;;;;;;5041828;28;20067;-74
2023/12/06 09:06:38;;;;;;;;;;;;;;;;;;5048237;28;20052;-74
2023/12/06 09:09:05;;;;;;;40.72;20.42;;;;;;;;;;5047118;28;19921;-74
2023/12/06 09:11:32;;;;;;;46.53;21.27;;;;;;;;;;5045724;28;20048;-74
2023/12/06 09:13:58;;;;;;;40.75;20.30;;;;;;;;;;5046365;28;20080;-73
2023/12/06 09:16:24;;;;;;;;;;;;;;;;;;5051418;28;20428;-73
2023/12/06 09:18:50;;;;;;;45.83;19.02;;;;;;;;;;5050242;28;20003;-73
2023/12/06 09:21:16;;;;;;;;;;;;;;;;;;5029992;28;20040;-73
2023/12/06 09:23:42;;;;;;;35.17;18.55;;;;;;;;;;5032915;28;19933;-73
2023/12/06 09:26:09;;;;;;;;;;;;;;;;;;5049548;28;20529;-74
2023/12/06 09:28:35;;;;;;;35.30;18.50;;;;;;;;;;5035764;28;20369;-73
2023/12/06 09:31:03;;;;;;;39.00;20.08;;;;;;;;;;5042136;28;20044;-73
2023/12/06 09:33:29;;;;;;;37.53;19.73;;;;;;;;;;5055365;28;20095;-72
2023/12/06 09:35:56;;;;;;;36.53;18.88;;;;;;;;;;5031928;28;20048;-77
2023/12/06 09:38:22;;;;;;;42.58;20.02;;;;;;;;;;5041643;28;20076;-73
2023/12/06 09:40:48;;;;;;;;;;;;;;;;;;5025447;28;20081;-72
2023/12/06 09:43:14;;;;;;;38.70;18.63;;;;;;;;;;5038225;28;19927;-73
2023/12/06 09:45:40;;;;;;;;;;;;;;;;;;5043361;28;20129;-73
2023/12/06 09:48:06;;;;;;;38.20;18.10;;;;;;;;;;5029313;28;19960;-77
2023/12/06 09:50:32;;;;;;;;;;;;;;;;;;5043343;28;20168;-74
2023/12/06 09:52:58;;;;;;;40.83;18.25;;;;;;;;;;5047947;28;20350;-75
2023/12/06 09:55:25;;;;;;;36.78;18.88;;;;;;;;;;5027658;28;20394;-76
2023/12/06 09:57:52;;;;;;;38.90;17.80;;;;;;;;;;5037554;28;20053;-74
2023/12/06 10:00:18;;;;;;;37.13;18.48;;;;;;;;;;5047890;28;20510;-77
2023/12/06 10:02:57;;;;;;;36.45;18.08;;;;;;;;;;5045533;28;21020;-81
2023/12/06 10:05:24;;;;;;;40.53;18.10;;;;;;;;;;5047203;28;20041;-76
2023/12/06 10:07:51;;;;;;;36.15;18.80;;;;;;;;;;5049571;28;20049;-76
2023/12/06 10:10:31;;;;;;;32.03;18.27;;;;;;;;;;5045081;28;20071;-78
2023/12/06 10:13:31;;;;;;;38.30;19.08;;;;;;;;;;5043117;28;20355;-75
2023/12/06 10:16:04;;;;;;;35.10;17.38;;;;;;;;;;5047218;28;20090;-76
2023/12/06 10:18:33;;;;;;;36.00;17.75;;;;;;;;;;5054867;28;20110;-76
2023/12/06 10:20:59;;;;;;;;;;;;;;;;;;5035005;28;20072;-80
2023/12/06 10:23:29;;;;;;;35.25;18.50;;;;;;;;;;5032951;28;20326;-77
2023/12/06 10:25:55;;;;;;;34.00;17.00;;;;;;;;;;5051006;28;20041;-73
2023/12/06 10:28:21;;;;;;;32.92;17.55;;;;;;;;;;5051516;28;20101;-75
2023/12/06 10:30:47;;;;;;;31.08;17.10;;;;;;;;;;5060417;28;20056;-74
2023/12/06 10:33:17;;;;;;;33.72;17.42;;;;;;;;;;5056691;28;20049;-74
2023/12/06 10:35:43;;;;;;;32.38;17.88;;;;;;;;;;5047951;28;20036;-75
2023/12/06 10:38:10;;;;;;;35.60;18.15;;;;;;;;;;5062607;28;20068;-75
2023/12/06 10:40:39;;;;;;;37.25;17.30;;;;;;;;;;5068997;28;20079;-76
2023/12/06 10:43:21;;;;;;;33.42;17.40;;;;;;;;;;5061709;28;20420;-75
2023/12/06 10:45:48;;;;;;;34.00;18.05;;;;;;;;;;5071346;28;20052;-76
2023/12/06 10:48:16;;;;;;;30.65;17.58;;;;;;;;;;5071221;28;20546;-74
2023/12/06 10:50:43;;;;;;;29.20;16.17;;;;;;;;;;5051088;28;20052;-76
2023/12/06 10:53:17;;;;;;;33.55;17.00;;;;;;;;;;5068951;28;20059;-76
2023/12/06 10:55:50;;;;;;;30.52;16.52;;;;;;;;;;5053629;28;20067;-78
2023/12/06 10:58:17;;;;;;;30.40;15.55;;;;;;;;;;5031505;28;20051;-76
2023/12/06 11:00:43;;;;;;;27.90;15.02;;;;;;;;;;5049850;28;20050;-76
2023/12/06 11:03:12;;;;;;;28.83;15.82;;;;;;;;;;5064878;28;20048;-77
2023/12/06 11:05:41;;;;;;;29.75;15.98;;;;;;;;;;5051963;28;20178;-76
2023/12/06 11:08:15;;;;;;;33.15;16.38;;;;;;;;;;5066124;28;20045;-76
2023/12/06 11:10:45;;;;;;;28.70;15.15;;;;;;;;;;5049501;28;20048;-76
2023/12/06 11:13:11;;;;;;;27.58;15.00;;;;;;;;;;5047361;28;20044;-77
2023/12/06 11:15:37;;;;;;;;;;;;;;;;;;5055064;28;20044;-75
2023/12/06 11:18:03;;;;;;;31.67;15.30;;;;;;;;;;5039747;28;19943;-78
2023/12/06 11:20:31;;;;;;;28.27;15.18;;;;;;;;;;5042275;28;20291;-72
2023/12/06 11:22:58;;;;;;;28.02;15.60;;;;;;;;;;5054308;28;20215;-76
2023/12/06 11:25:24;;;;;;;26.88;14.35;;;;;;;;;;5072403;28;20043;-74
2023/12/06 11:27:50;;;;;;;;;;;;;;;;;;5070091;28;20072;-73
2023/12/06 11:30:17;;;;;;;25.63;14.60;;;;;;;;;;5053849;28;19990;-73
2023/12/06 11:32:43;;;;;;;30.23;16.52;;;;;;;;;;5059405;28;20048;-79
2023/12/06 11:35:10;;;;;;;35.88;15.77;;;;;;;;;;5053567;28;20052;-76
2023/12/06 11:37:36;;;;;;;29.00;15.43;;;;;;;;;;5055847;28;20528;-80
2023/12/06 11:40:02;;;;;;;;;;;;;;;;;;5051689;28;20145;-76
2023/12/06 11:42:29;;;;;;;33.05;16.80;;;;;;;;;;5051934;28;20067;-76
2023/12/06 11:44:55;;;;;;;;;;;;;;;;;;5064456;28;20521;-77
2023/12/06 11:47:25;;;;;;;29.17;15.00;;;;;;;;;;5053797;28;20023;-75
2023/12/06 11:49:53;;;;;;;26.85;13.45;;;;;;;;;;5051823;28;20379;-76
2023/12/06 11:52:22;;;;;;;31.15;16.75;;;;;;;;;;5042583;28;20048;-76
2023/12/06 11:54:48;;;;;;;;;;;;;;;;;;5070633;28;20047;-76
2023/12/06 11:57:15;;;;;;;27.92;15.20;;;;;;;;;;5049414;28;20364;-75
2023/12/06 11:59:42;;;;;;;27.50;15.55;;;;;;;;;;5047891;28;20073;-76
2023/12/06 12:02:08;;;;;;;31.40;17.13;;;;;;;;;;5054297;28;20098;-78
2023/12/06 12:04:34;;;;;;;27.58;14.93;;;;;;;;;;5069616;28;20045;-76
2023/12/06 12:07:01;;;;;;;28.50;15.20;;;;;;;;;;5036770;28;20045;-75
2023/12/06 12:09:29;;;;;;;28.90;14.85;;;;;;;;;;5055391;28;20071;-76
2023/12/06 12:11:55;;;;;;;29.50;14.93;;;;;;;;;;5071646;28;20055;-77
2023/12/06 12:14:21;;;;;;;;;;;;;;;;;;5060893;28;20045;-75
2023/12/06 12:16:47;;;;;;;25.27;13.98;;;;;;;;;;5018922;28;19932;-75
2023/12/06 12:19:13;;;;;;;;;;;;;;;;;;5052400;28;20052;-75
2023/12/06 12:21:39;;;;;;;25.67;13.48;;;;;;;;;;5052367;28;19943;-79
2023/12/06 12:24:06;;;;;;;27.00;13.77;;;;;;;;;;5070465;28;20048;-75
2023/12/06 12:26:32;;;;;;;27.40;13.65;;;;;;;;;;5057975;28;20063;-74
2023/12/06 12:28:59;;;;;;;;;;;;;;;;;;5049357;28;20056;-75
2023/12/06 12:31:26;;;;;;;;;;;;;;;;;;5064419;28;20437;-74
2023/12/06 12:33:52;;;;;;;24.95;13.65;;;;;;;;;;5072308;28;20015;-76
2023/12/06 12:36:19;;;;;;;23.60;12.55;;;;;;;;;;5085560;28;20068;-76
2023/12/06 12:38:45;;;;;;;22.75;12.48;;;;;;;;;;5069144;28;20048;-79
2023/12/06 12:41:17;;;;;;;24.75;13.65;;;;;;;;;;5040249;28;20092;-76
2023/12/06 12:43:50;;;;;;;24.30;12.80;;;;;;;;;;5045194;28;20123;-77
2023/12/06 12:46:21;;;;;;;25.05;12.95;;;;;;;;;;5060019;28;20048;-76
2023/12/06 12:48:48;;;;;;;26.13;13.65;;;;;;;;;;5068661;28;20131;-75
2023/12/06 12:51:18;;;;;;;26.60;13.20;;;;;;;;;;5059313;28;20049;-79
2023/12/06 12:53:45;;;;;;;24.45;13.52;;;;;;;;;;5008902;28;20047;-77
2023/12/06 12:56:14;;;;;;;22.30;12.43;;;;;;;;;;5063697;28;20041;-76
2023/12/06 12:58:43;;;;;;;24.95;12.93;;;;;;;;;;5070014;28;20076;-75
2023/12/06 13:01:09;;;;;;;23.83;12.98;;;;;;;;;;5056715;28;20059;-74
2023/12/06 13:03:35;;;;;;;25.23;12.93;;;;;;;;;;5062104;28;20151;-73
2023/12/06 13:06:01;;;;;;;;;;;;;;;;;;5049505;28;20056;-76
2023/12/06 13:08:28;;;;;;;21.75;11.65;;;;;;;;;;5048587;28;19928;-75
2023/12/06 13:10:55;;;;;;;24.05;12.60;;;;;;;;;;5069557;28;20045;-75
2023/12/06 13:13:21;;;;;;;21.52;12.13;;;;;;;;;;5052632;28;20102;-76
2023/12/06 13:15:47;;;;;;;;;;;;;;;;;;5071902;28;20047;-73
2023/12/06 13:18:13;;;;;;;20.63;11.65;;;;;;;;;;5047647;28;19928;-74
2023/12/06 13:20:39;;;;;;;20.73;11.25;;;;;;;;;;5053315;28;20049;-75
2023/12/06 13:23:05;;;;;;;24.00;12.07;;;;;;;;;;5053598;28;20052;-75
2023/12/06 13:25:31;;;;;;;20.25;11.52;;;;;;;;;;5046929;28;20136;-73
2023/12/06 13:27:57;;;;;;;19.38;11.27;;;;;;;;;;5053394;28;20060;-73
2023/12/06 13:30:23;;;;;;;21.88;11.73;;;;;;;;;;5054944;28;20048;-74
2023/12/06 13:32:49;;;;;;;20.67;11.45;;;;;;;;;;5079931;28;20076;-73
2023/12/06 13:35:15;;;;;;;19.52;11.35;;;;;;;;;;5062521;28;20051;-73
2023/12/06 13:37:41;;;;;;;20.55;11.43;;;;;;;;;;5052898;28;20044;-74
2023/12/06 13:40:08;;;;;;;25.13;11.15;;;;;;;;;;5069962;28;20159;-74
2023/12/06 13:42:34;;;;;;;22.15;12.10;;;;;;;;;;5048101;28;20044;-73
2023/12/06 13:45:00;;;;;;;19.23;11.68;;;;;;;;;;5052009;28;20044;-73
2023/12/06 13:47:26;;;;;;;19.23;10.48;;;;;;;;;;5051804;28;20059;-73
2023/12/06 13:49:52;;;;;;;23.25;11.50;;;;;;;;;;5053994;28;20094;-73
2023/12/06 13:52:18;;;;;;;21.08;11.65;;;;;;;;;;5071457;28;20052;-74
2023/12/06 13:54:44;;;;;;;22.23;11.27;;;;;;;;;;5069629;28;20055;-73
2023/12/06 13:57:10;;;;;;;21.27;10.70;;;;;;;;;;5052639;28;20048;-73
2023/12/06 13:59:38;;;;;;;;;;;;;;;;;;5037379;28;20405;-73
2023/12/06 14:02:04;;;;;;;18.52;10.43;;;;;;;;;;5052955;28;19921;-73
2023/12/06 14:04:30;;;;;;;;;;;;;;;;;;5069567;28;20044;-73
2023/12/06 14:06:56;;;;;;;20.20;11.18;;;;;;;;;;5051638;28;19928;-73
2023/12/06 14:09:22;;;;;;;;;;;;;;;;;;5071760;28;20048;-73
2023/12/06 14:11:48;;;;;;;18.27;10.55;;;;;;;;;;5070702;28;19920;-75
2023/12/06 14:14:14;;;;;;;;;;;;;;;;;;5069473;28;20090;-73
2023/12/06 14:16:41;;;;;;;22.52;11.07;;;;;;;;;;5052585;28;20409;-73
2023/12/06 14:19:07;;;;;;;18.75;10.52;;;;;;;;;;5053097;28;20064;-73
2023/12/06 14:21:33;;;;;;;;;;;;;;;;;;5052760;28;20053;-73
2023/12/06 14:23:59;;;;;;;19.25;10.52;;;;;;;;;;5053230;28;19969;-73
2023/12/06 14:26:25;;;;;;;18.67;11.57;;;;;;;;;;5050572;28;20033;-74
2023/12/06 14:28:51;;;;;;;21.30;11.77;;;;;;;;;;5048601;28;20044;-73
2023/12/06 14:31:17;;;;;;;24.15;11.60;;;;;;;;;;5035472;28;20098;-74
2023/12/06 14:33:45;;;;;;;19.13;10.25;;;;;;;;;;5070410;28;20132;-73
2023/12/06 14:36:11;;;;;;;20.27;10.80;;;;;;;;;;5044356;28;20279;-73
2023/12/06 14:38:37;;;;;;;22.73;10.82;;;;;;;;;;5051407;28;20040;-73
2023/12/06 14:41:03;;;;;;;;;;;;;;;;;;5052228;28;20044;-71
2023/12/06 14:43:29;;;;;;;15.93;9.13;;;;;;;;;;5050810;28;19927;-77
2023/12/06 14:45:57;;;;;;;;;;;;;;;;;;5067510;28;20056;-73